Time;durP1;ratioP1;P1;durP2;ratioP2;P2;SDS_P1;SDS_P2;PMS_P1;PMS_P2;Temp;Humidity;BMP_temperature;BMP_pressure;BME280_temperature;BME280_humidity;BME280_pressure;Samples;Min_cycle;Max_cycle;Signal;HPM_P1;HPM_P2
2021/11/18 00:00:15;;;;;;;13.30;8.07;;;4.60;99.90;;;;;;5010396;28;20024;-82
2021/11/18 00:02:43;;;;;;;10.87;8.00;;;4.60;99.90;;;;;;5010381;28;20037;-82
2021/11/18 00:05:12;;;;;;;10.20;8.10;;;4.60;99.90;;;;;;5012713;28;20529;-79
2021/11/18 00:07:42;;;;;;;10.77;8.40;;;4.60;99.90;;;;;;5013574;28;20113;-79
2021/11/18 00:10:08;;;;;;;11.73;8.77;;;4.60;99.90;;;;;;5013600;28;20074;-79
2021/11/18 00:12:34;;;;;;;11.83;8.60;;;4.60;99.90;;;;;;5013594;28;20057;-78
2021/11/18 00:14:59;;;;;;;10.87;8.13;;;4.60;99.90;;;;;;5013227;28;20033;-78
2021/11/18 00:17:25;;;;;;;10.13;7.70;;;4.50;99.90;;;;;;5012108;28;20153;-79
2021/11/18 00:19:50;;;;;;;10.77;8.00;;;4.60;99.90;;;;;;5013633;28;20030;-79
2021/11/18 00:22:16;;;;;;;12.50;8.50;;;4.50;99.90;;;;;;5013089;28;20076;-78
2021/11/18 00:24:42;;;;;;;14.87;8.77;;;4.50;99.90;;;;;;5013473;28;20025;-79
2021/11/18 00:27:08;;;;;;;10.87;8.27;;;4.60;99.90;;;;;;5013014;28;20030;-79
2021/11/18 00:29:34;;;;;;;12.23;8.47;;;4.50;99.90;;;;;;5013343;28;20040;-79
2021/11/18 00:31:59;;;;;;;11.77;8.40;;;4.50;99.90;;;;;;5013557;28;20115;-79
2021/11/18 00:34:25;;;;;;;11.97;8.10;;;4.50;99.90;;;;;;5013356;28;20037;-79
2021/11/18 00:36:50;;;;;;;11.67;8.30;;;4.60;99.90;;;;;;5013244;28;20061;-79
2021/11/18 00:39:16;;;;;;;13.17;8.87;;;4.50;99.90;;;;;;5013450;28;20030;-79
2021/11/18 00:41:42;;;;;;;15.90;8.70;;;4.60;99.90;;;;;;5006831;28;20036;-76
2021/11/18 00:44:08;;;;;;;10.83;8.53;;;4.60;99.90;;;;;;5003019;28;20100;-82
2021/11/18 00:46:34;;;;;;;12.20;9.20;;;4.50;99.90;;;;;;5009998;28;20119;-83
2021/11/18 00:49:00;;;;;;;10.87;8.27;;;4.50;99.90;;;;;;5008582;28;20030;-82
2021/11/18 00:51:28;;;;;;;11.40;7.80;;;4.50;99.90;;;;;;5009801;28;20033;-82
2021/11/18 00:53:59;;;;;;;9.63;7.97;;;4.50;99.90;;;;;;5010004;28;20049;-83
2021/11/18 00:56:26;;;;;;;11.20;7.93;;;4.60;99.90;;;;;;5009729;28;20038;-83
2021/11/18 00:58:54;;;;;;;12.43;8.63;;;4.50;99.90;;;;;;5008588;28;20461;-83
2021/11/18 01:01:23;;;;;;;12.30;8.00;;;4.60;99.90;;;;;;5009768;28;20030;-82
2021/11/18 01:03:51;;;;;;;11.27;8.20;;;4.50;99.90;;;;;;5010370;28;20022;-83
2021/11/18 01:06:17;;;;;;;11.40;8.00;;;4.50;99.90;;;;;;5013614;28;20069;-83
2021/11/18 01:08:42;;;;;;;10.83;7.90;;;4.50;99.90;;;;;;5012304;28;20022;-83
2021/11/18 01:11:21;;;;;;;11.37;8.47;;;4.50;99.90;;;;;;5013620;28;20497;-83
2021/11/18 01:13:48;;;;;;;11.27;8.63;;;4.60;99.90;;;;;;5013313;28;20030;-83
2021/11/18 01:16:17;;;;;;;10.83;8.40;;;4.60;99.90;;;;;;5013605;28;20037;-83
2021/11/18 01:18:42;;;;;;;11.00;7.60;;;4.60;99.90;;;;;;5013312;28;20375;-83
2021/11/18 01:21:10;;;;;;;10.60;8.40;;;4.60;99.90;;;;;;5013302;28;20034;-83
2021/11/18 01:23:40;;;;;;;10.57;7.60;;;4.50;99.90;;;;;;5013281;28;20374;-83
2021/11/18 01:26:09;;;;;;;11.07;8.83;;;4.60;99.90;;;;;;5013318;28;20204;-83
2021/11/18 01:28:35;;;;;;;12.20;8.57;;;4.60;99.90;;;;;;5013206;28;20037;-83
2021/11/18 01:31:02;;;;;;;9.97;7.63;;;4.50;99.90;;;;;;5011788;28;20483;-83
2021/11/18 01:33:28;;;;;;;11.10;8.60;;;4.60;99.90;;;;;;5014730;28;20030;-76
2021/11/18 01:35:54;;;;;;;11.80;9.03;;;4.60;99.90;;;;;;5011190;28;20077;-76
2021/11/18 01:38:20;;;;;;;10.97;8.60;;;4.60;99.90;;;;;;5006362;28;20034;-76
2021/11/18 01:40:50;;;;;;;10.53;7.97;;;4.60;99.90;;;;;;5003204;28;20106;-76
2021/11/18 01:43:18;;;;;;;12.10;8.90;;;4.60;99.90;;;;;;5001245;28;20113;-76
2021/11/18 01:45:44;;;;;;;11.90;8.00;;;4.60;99.90;;;;;;5015902;28;20022;-76
2021/11/18 01:48:09;;;;;;;13.07;8.80;;;4.50;99.90;;;;;;5015816;28;20426;-76
2021/11/18 01:50:37;;;;;;;11.17;8.60;;;4.50;99.90;;;;;;5013830;28;20084;-76
2021/11/18 01:53:08;;;;;;;11.80;8.23;;;4.50;99.90;;;;;;5014184;28;20068;-76
2021/11/18 01:55:35;;;;;;;11.03;8.20;;;4.50;99.90;;;;;;5007240;28;20475;-76
2021/11/18 01:58:00;;;;;;;10.03;7.97;;;4.50;99.90;;;;;;5010035;28;20079;-76
2021/11/18 02:00:38;;;;;;;13.73;8.70;;;4.50;99.90;;;;;;5015416;28;20105;-76
2021/11/18 02:03:03;;;;;;;11.77;8.50;;;4.50;99.90;;;;;;5015522;28;20018;-76
2021/11/18 02:05:34;;;;;;;11.17;8.80;;;4.50;99.90;;;;;;5001848;28;20480;-76
2021/11/18 02:08:00;;;;;;;10.43;8.73;;;4.50;99.90;;;;;;5015384;28;20080;-76
2021/11/18 02:10:33;;;;;;;11.67;8.37;;;4.50;99.90;;;;;;5015003;28;20145;-76
2021/11/18 02:13:01;;;;;;;14.20;8.43;;;4.50;99.90;;;;;;5015132;28;20034;-76
2021/11/18 02:15:31;;;;;;;12.47;8.93;;;4.50;99.90;;;;;;5009881;28;20026;-76
2021/11/18 02:17:59;;;;;;;10.23;8.03;;;4.50;99.90;;;;;;5006225;28;20375;-76
2021/11/18 02:20:30;;;;;;;12.33;9.13;;;4.50;99.90;;;;;;5014896;28;20018;-76
2021/11/18 02:22:58;;;;;;;11.97;9.00;;;4.50;99.90;;;;;;5015101;28;20037;-76
2021/11/18 02:25:29;;;;;;;11.60;9.23;;;4.50;99.90;;;;;;5015247;28;20117;-76
2021/11/18 02:27:56;;;;;;;11.07;8.93;;;4.50;99.90;;;;;;5014713;28;20041;-76
2021/11/18 02:30:26;;;;;;;12.33;9.37;;;4.50;99.90;;;;;;5013646;28;20033;-76
2021/11/18 02:32:52;;;;;;;11.90;8.90;;;4.50;99.90;;;;;;5002417;28;20108;-76
2021/11/18 02:35:24;;;;;;;11.30;9.07;;;4.40;99.90;;;;;;5014579;28;20021;-76
2021/11/18 02:37:52;;;;;;;11.07;8.87;;;4.40;99.90;;;;;;5001845;28;20053;-76
2021/11/18 02:40:18;;;;;;;13.07;9.33;;;4.40;99.90;;;;;;5015025;28;20387;-76
2021/11/18 02:42:44;;;;;;;13.23;9.27;;;4.40;99.90;;;;;;5014679;28;20129;-76
2021/11/18 02:45:14;;;;;;;11.63;8.73;;;4.40;99.90;;;;;;5014733;28;20022;-76
2021/11/18 02:47:40;;;;;;;12.00;9.07;;;4.40;99.90;;;;;;5001284;28;20026;-76
2021/11/18 02:50:10;;;;;;;11.00;9.03;;;4.40;99.90;;;;;;5004215;28;20133;-76
2021/11/18 02:52:36;;;;;;;12.63;8.70;;;4.40;99.90;;;;;;5001163;28;20113;-76
2021/11/18 02:55:14;;;;;;;11.80;9.27;;;4.40;99.90;;;;;;5014513;28;20487;-76
2021/11/18 02:57:39;;;;;;;12.97;9.17;;;4.40;99.90;;;;;;5014317;28;20022;-76
2021/11/18 03:00:09;;;;;;;11.60;9.37;;;4.40;99.90;;;;;;5014224;28;20093;-76
2021/11/18 03:02:34;;;;;;;11.53;8.80;;;4.40;99.90;;;;;;5012955;28;20053;-76
2021/11/18 03:05:00;;;;;;;13.53;9.30;;;4.40;99.90;;;;;;5014118;28;20057;-76
2021/11/18 03:07:26;;;;;;;13.27;10.23;;;4.40;99.90;;;;;;5014062;28;20129;-76
2021/11/18 03:09:52;;;;;;;13.87;9.80;;;4.40;99.90;;;;;;5014159;28;20026;-76
2021/11/18 03:12:17;;;;;;;11.83;9.57;;;4.40;99.90;;;;;;5010804;28;20023;-76
2021/11/18 03:14:43;;;;;;;11.57;9.63;;;4.40;99.90;;;;;;5004009;28;20328;-76
2021/11/18 03:17:08;;;;;;;12.93;9.17;;;4.40;99.90;;;;;;5013891;28;20128;-76
2021/11/18 03:19:34;;;;;;;12.63;9.73;;;4.40;99.90;;;;;;5013898;28;20032;-76
2021/11/18 03:22:00;;;;;;;11.53;8.93;;;4.40;99.90;;;;;;5013621;28;20446;-76
2021/11/18 03:24:26;;;;;;;14.30;9.97;;;4.40;99.90;;;;;;5013715;28;20057;-76
2021/11/18 03:26:51;;;;;;;12.83;9.37;;;4.40;99.90;;;;;;5013701;28;20065;-76
2021/11/18 03:29:17;;;;;;;12.73;9.20;;;4.40;99.90;;;;;;5012410;28;20443;-76
2021/11/18 03:31:43;;;;;;;13.87;9.40;;;4.40;99.90;;;;;;5013860;28;20057;-76
2021/11/18 03:34:13;;;;;;;14.73;10.27;;;4.40;99.90;;;;;;5013577;28;20026;-76
2021/11/18 03:36:39;;;;;;;12.77;9.50;;;4.40;99.90;;;;;;5013507;28;20032;-76
2021/11/18 03:39:07;;;;;;;13.70;9.37;;;4.40;99.90;;;;;;5013875;28;20467;-76
2021/11/18 03:41:36;;;;;;;13.00;9.83;;;4.40;99.90;;;;;;4999855;28;20014;-76
2021/11/18 03:44:05;;;;;;;15.03;10.23;;;4.40;99.90;;;;;;5013770;28;20108;-76
2021/11/18 03:46:36;;;;;;;14.67;10.60;;;4.40;99.90;;;;;;4999621;28;20022;-76
2021/11/18 03:49:02;;;;;;;12.90;9.83;;;4.40;99.90;;;;;;5013209;28;20371;-76
2021/11/18 03:51:28;;;;;;;13.33;9.30;;;4.40;99.90;;;;;;4998311;28;20026;-76
2021/11/18 03:53:55;;;;;;;12.17;9.97;;;4.40;99.90;;;;;;5013453;28;20014;-76
2021/11/18 03:56:24;;;;;;;13.53;10.23;;;4.40;99.90;;;;;;5013147;28;20033;-76
2021/11/18 03:58:49;;;;;;;13.40;10.40;;;4.40;99.90;;;;;;5006026;28;20045;-76
2021/11/18 04:01:16;;;;;;;14.63;10.23;;;4.40;99.90;;;;;;5006577;28;20111;-76
2021/11/18 04:03:42;;;;;;;13.10;10.30;;;4.40;99.90;;;;;;5013009;28;20056;-76
2021/11/18 04:06:08;;;;;;;14.40;10.37;;;4.40;99.90;;;;;;5013047;28;20026;-76
2021/11/18 04:08:34;;;;;;;17.23;10.93;;;4.40;99.90;;;;;;5013077;28;20443;-76
2021/11/18 04:11:00;;;;;;;16.47;11.30;;;4.40;99.90;;;;;;5013045;28;20099;-76
2021/11/18 04:13:26;;;;;;;16.43;11.90;;;4.40;99.90;;;;;;5011657;28;20479;-76
2021/11/18 04:15:52;;;;;;;17.43;11.30;;;4.40;99.90;;;;;;5000896;28;20025;-76
2021/11/18 04:18:23;;;;;;;15.57;11.03;;;4.40;99.90;;;;;;5012833;28;20034;-76
2021/11/18 04:20:51;;;;;;;13.40;10.40;;;4.40;99.90;;;;;;4999603;28;20022;-76
2021/11/18 04:23:19;;;;;;;12.47;9.80;;;4.40;99.90;;;;;;5012982;28;20076;-76
2021/11/18 04:25:45;;;;;;;13.20;10.33;;;4.40;99.90;;;;;;5012925;28;20030;-76
2021/11/18 04:28:12;;;;;;;12.63;9.70;;;4.40;99.90;;;;;;5011628;28;20033;-76
2021/11/18 04:30:42;;;;;;;14.63;10.33;;;4.40;99.90;;;;;;5009840;28;20049;-76
2021/11/18 04:33:08;;;;;;;13.30;10.10;;;4.40;99.90;;;;;;4993066;28;20038;-76
2021/11/18 04:35:33;;;;;;;12.83;9.90;;;4.40;99.90;;;;;;4994321;28;20149;-76
2021/11/18 04:37:59;;;;;;;15.23;10.73;;;4.40;99.90;;;;;;5011093;28;20033;-76
2021/11/18 04:40:25;;;;;;;15.03;11.03;;;4.40;99.90;;;;;;5011126;28;20134;-76
2021/11/18 04:42:51;;;;;;;17.73;11.30;;;4.40;99.90;;;;;;5016883;28;20026;-76
2021/11/18 04:45:20;;;;;;;16.00;11.30;;;4.40;99.90;;;;;;5016686;28;20092;-76
2021/11/18 04:47:46;;;;;;;15.33;11.60;;;4.40;99.90;;;;;;5016937;28;20026;-76
2021/11/18 04:50:12;;;;;;;16.27;11.60;;;4.40;99.90;;;;;;5016551;28;20050;-76
2021/11/18 04:52:39;;;;;;;19.17;12.07;;;4.40;99.90;;;;;;5016523;28;20443;-76
2021/11/18 04:55:07;;;;;;;16.47;12.60;;;4.40;99.90;;;;;;5016685;28;20045;-76
2021/11/18 04:57:33;;;;;;;16.30;11.83;;;4.40;99.90;;;;;;5005727;28;20038;-76
2021/11/18 04:59:58;;;;;;;16.13;11.90;;;4.40;99.90;;;;;;5013165;28;20036;-76
2021/11/18 05:02:24;;;;;;;17.27;11.87;;;4.40;99.90;;;;;;5016184;28;20030;-76
2021/11/18 05:04:52;;;;;;;14.00;10.80;;;4.40;99.90;;;;;;5016291;28;20132;-76
2021/11/18 05:07:18;;;;;;;13.63;10.77;;;4.40;99.90;;;;;;5016478;28;20033;-76
2021/11/18 05:09:45;;;;;;;13.57;10.50;;;4.40;99.90;;;;;;5016204;28;20367;-76
2021/11/18 05:12:11;;;;;;;14.13;11.10;;;4.40;99.90;;;;;;5016030;28;20017;-76
2021/11/18 05:14:36;;;;;;;16.43;11.57;;;4.40;99.90;;;;;;5016490;28;20033;-76
2021/11/18 05:17:02;;;;;;;18.50;11.37;;;4.40;99.90;;;;;;5015361;28;20034;-79
2021/11/18 05:19:28;;;;;;;13.40;10.77;;;4.40;99.90;;;;;;5015153;28;20093;-79
2021/11/18 05:21:53;;;;;;;15.03;11.30;;;4.40;99.90;;;;;;5016759;28;20041;-79
2021/11/18 05:24:19;;;;;;;13.83;11.13;;;4.40;99.90;;;;;;5017063;28;20022;-79
2021/11/18 05:26:45;;;;;;;14.03;10.57;;;4.40;99.90;;;;;;5016478;28;20026;-79
2021/11/18 05:29:12;;;;;;;14.50;10.70;;;4.40;99.90;;;;;;5016505;28;20108;-79
2021/11/18 05:31:38;;;;;;;15.63;11.37;;;4.40;99.90;;;;;;5016111;28;20030;-79
2021/11/18 05:34:03;;;;;;;15.20;11.23;;;4.40;99.90;;;;;;5016338;28;20517;-79
2021/11/18 05:36:29;;;;;;;19.10;12.00;;;4.40;99.90;;;;;;5016162;28;20034;-79
2021/11/18 05:38:55;;;;;;;13.10;10.33;;;4.40;99.90;;;;;;5016081;28;20026;-79
2021/11/18 05:41:21;;;;;;;13.80;10.67;;;4.40;99.90;;;;;;5015903;28;20046;-79
2021/11/18 05:43:50;;;;;;;14.60;11.23;;;4.30;99.90;;;;;;5016372;28;20026;-79
2021/11/18 05:46:18;;;;;;;17.13;11.70;;;4.40;99.90;;;;;;5016045;28;20083;-79
2021/11/18 05:48:44;;;;;;;14.97;11.90;;;4.40;99.90;;;;;;5016085;28;20026;-79
2021/11/18 05:51:11;;;;;;;14.27;10.90;;;4.40;99.90;;;;;;5014582;28;20474;-79
2021/11/18 05:53:40;;;;;;;15.47;12.17;;;4.40;99.90;;;;;;5015738;28;20030;-79
2021/11/18 05:56:10;;;;;;;14.70;11.53;;;4.40;99.90;;;;;;5015974;28;20053;-79
2021/11/18 05:58:38;;;;;;;16.37;11.80;;;4.40;99.90;;;;;;5015534;28;20022;-70
2021/11/18 06:01:05;;;;;;;16.17;11.13;;;4.40;99.90;;;;;;5015829;28;20018;-79
2021/11/18 06:03:31;;;;;;;14.93;11.70;;;4.30;99.90;;;;;;5015800;28;20022;-79
2021/11/18 06:05:57;;;;;;;14.70;11.93;;;4.30;99.90;;;;;;5015656;28;20097;-79
2021/11/18 06:08:22;;;;;;;16.13;11.80;;;4.30;99.90;;;;;;5015431;28;20096;-79
2021/11/18 06:10:50;;;;;;;14.73;12.00;;;4.30;99.90;;;;;;5015365;28;20367;-79
2021/11/18 06:13:22;;;;;;;16.13;12.37;;;4.30;99.90;;;;;;5072411;23;20045;-83
2021/11/18 06:15:50;;;;;;;17.53;12.60;;;4.30;99.90;;;;;;5046206;28;20536;-79
2021/11/18 06:18:16;;;;;;;17.10;13.13;;;4.30;99.90;;;;;;5055415;28;20031;-79
2021/11/18 06:20:42;;;;;;;18.60;13.30;;;4.40;99.90;;;;;;5054951;28;20096;-82
2021/11/18 06:23:09;;;;;;;15.90;12.10;;;4.40;99.90;;;;;;5054931;28;20021;-81
2021/11/18 06:25:37;;;;;;;17.77;12.53;;;4.40;99.90;;;;;;5053772;28;20020;-80
2021/11/18 06:28:04;;;;;;;20.57;13.77;;;4.40;99.90;;;;;;5054848;28;20398;-81
2021/11/18 06:30:41;;;;;;;20.00;14.27;;;4.40;99.90;;;;;;5052868;28;20454;-71
2021/11/18 06:33:07;;;;;;;18.10;13.13;;;4.40;99.90;;;;;;5043495;28;20465;-82
2021/11/18 06:35:34;;;;;;;19.63;14.00;;;4.40;99.90;;;;;;5054094;28;20508;-84
2021/11/18 06:38:02;;;;;;;19.93;14.30;;;4.40;99.90;;;;;;5054158;28;20029;-82
2021/11/18 06:40:28;;;;;;;17.47;11.87;;;4.40;99.90;;;;;;5064684;28;20038;-83
2021/11/18 06:42:54;;;;;;;17.63;12.73;;;4.40;99.90;;;;;;5052742;28;20465;-85
2021/11/18 06:45:23;;;;;;;20.40;14.17;;;4.40;99.90;;;;;;5051291;28;20021;-85
2021/11/18 06:47:48;;;;;;;18.70;12.80;;;4.40;99.90;;;;;;5051774;28;20097;-78
2021/11/18 06:50:14;;;;;;;18.73;13.23;;;4.40;99.90;;;;;;5044642;28;20028;-78
2021/11/18 06:52:40;;;;;;;16.83;12.90;;;4.50;99.90;;;;;;5046022;28;20059;-78
2021/11/18 06:55:08;;;;;;;16.53;12.30;;;4.50;99.90;;;;;;5046979;28;20067;-78
2021/11/18 06:57:33;;;;;;;18.70;12.97;;;4.40;99.90;;;;;;5053034;28;20124;-78
2021/11/18 06:59:59;;;;;;;18.27;12.97;;;4.40;99.90;;;;;;5050161;28;20100;-78
2021/11/18 07:02:26;;;;;;;18.57;13.03;;;4.40;99.90;;;;;;5034281;28;20024;-77
2021/11/18 07:04:52;;;;;;;18.27;12.63;;;4.50;99.90;;;;;;5036481;28;20040;-84
2021/11/18 07:07:21;;;;;;;17.17;12.20;;;4.50;99.90;;;;;;5040964;28;20561;-78
2021/11/18 07:09:48;;;;;;;16.17;12.63;;;4.50;99.90;;;;;;5044616;28;20029;-78
2021/11/18 07:12:17;;;;;;;16.53;12.40;;;4.50;99.90;;;;;;5042693;28;20068;-78
2021/11/18 07:14:44;;;;;;;17.67;13.37;;;4.50;99.90;;;;;;5042519;28;20497;-78
2021/11/18 07:17:10;;;;;;;16.33;12.43;;;4.50;99.90;;;;;;5047422;28;20105;-78
2021/11/18 07:19:36;;;;;;;19.30;12.23;;;4.50;99.90;;;;;;5043884;28;20061;-78
2021/11/18 07:22:03;;;;;;;15.37;12.10;;;4.50;99.90;;;;;;5041802;28;20032;-78
2021/11/18 07:24:29;;;;;;;15.63;11.90;;;4.50;99.90;;;;;;5044038;28;20374;-78
2021/11/18 07:26:55;;;;;;;16.67;12.37;;;4.50;99.90;;;;;;5034305;28;20033;-78
2021/11/18 07:29:22;;;;;;;16.27;12.13;;;4.50;99.90;;;;;;5033941;28;20036;-78
2021/11/18 07:31:48;;;;;;;16.80;12.13;;;4.60;99.90;;;;;;5037031;28;20029;-83
2021/11/18 07:34:16;;;;;;;14.23;11.53;;;4.60;99.90;;;;;;5037333;28;20057;-83
2021/11/18 07:36:42;;;;;;;18.90;12.13;;;4.60;99.90;;;;;;5031310;28;20115;-83
2021/11/18 07:39:07;;;;;;;16.00;11.97;;;4.60;99.90;;;;;;5034518;28;20044;-83
2021/11/18 07:41:33;;;;;;;16.80;11.90;;;4.60;99.90;;;;;;5034512;28;20017;-83
2021/11/18 07:43:59;;;;;;;17.67;11.93;;;4.60;99.90;;;;;;5036815;28;20171;-83
2021/11/18 07:46:25;;;;;;;16.67;11.90;;;4.70;99.90;;;;;;5041002;28;20030;-83
2021/11/18 07:48:51;;;;;;;16.97;11.80;;;4.70;99.90;;;;;;5053879;28;20040;-83
2021/11/18 07:51:19;;;;;;;14.93;11.50;;;4.70;99.90;;;;;;5049324;28;20026;-79
2021/11/18 07:53:46;;;;;;;15.70;12.10;;;4.70;99.90;;;;;;5053156;28;20096;-79
2021/11/18 07:56:13;;;;;;;15.17;11.70;;;4.70;99.90;;;;;;5052247;28;20025;-79
2021/11/18 07:58:39;;;;;;;15.53;11.87;;;4.80;99.90;;;;;;5045721;28;20396;-79
2021/11/18 08:01:07;;;;;;;17.03;11.90;;;4.80;99.90;;;;;;5034462;28;20021;-82
2021/11/18 08:03:33;;;;;;;17.17;12.53;;;4.90;99.90;;;;;;5052012;28;20097;-83
2021/11/18 08:06:01;;;;;;;15.83;11.83;;;4.90;99.90;;;;;;5051653;28;20021;-83
2021/11/18 08:08:32;;;;;;;18.00;11.40;;;4.90;99.90;;;;;;5055239;28;20031;-82
2021/11/18 08:11:00;;;;;;;15.20;10.80;;;4.90;99.90;;;;;;5036004;28;20045;-81
2021/11/18 08:13:29;;;;;;;15.77;12.10;;;5.00;99.90;;;;;;5052158;28;20255;-81
2021/11/18 08:15:54;;;;;;;15.53;11.87;;;5.00;99.90;;;;;;5051567;28;20079;-82
2021/11/18 08:18:21;;;;;;;15.60;10.90;;;5.10;99.90;;;;;;5052854;28;20029;-82
2021/11/18 08:20:46;;;;;;;14.63;10.77;;;5.10;99.90;;;;;;5052780;28;20021;-82
2021/11/18 08:23:12;;;;;;;12.70;9.73;;;5.20;99.90;;;;;;5052129;28;20079;-81
2021/11/18 08:25:38;;;;;;;16.57;11.00;;;5.20;99.90;;;;;;5053015;28;20023;-81
2021/11/18 08:28:04;;;;;;;15.00;10.80;;;5.20;99.90;;;;;;5053236;28;20031;-82
2021/11/18 08:30:32;;;;;;;14.60;10.17;;;5.30;99.90;;;;;;5053151;28;20067;-82
2021/11/18 08:33:02;;;;;;;12.77;10.07;;;5.30;99.90;;;;;;5052895;28;20013;-82
2021/11/18 08:35:32;;;;;;;15.40;10.53;;;5.40;99.90;;;;;;5037721;28;20362;-82
2021/11/18 08:38:04;;;;;;;15.27;10.73;;;5.40;99.90;;;;;;5036501;28;20052;-82
2021/11/18 08:40:31;;;;;;;15.67;10.40;;;5.50;99.90;;;;;;5036616;28;20025;-82
2021/11/18 08:42:59;;;;;;;14.77;10.77;;;5.50;99.90;;;;;;5036232;28;20030;-82
2021/11/18 08:45:24;;;;;;;16.53;9.30;;;5.60;99.90;;;;;;5036387;28;20057;-82
2021/11/18 08:47:55;;;;;;;13.03;9.50;;;5.60;99.90;;;;;;5050267;28;20061;-82
2021/11/18 08:50:23;;;;;;;15.63;10.30;;;5.70;99.90;;;;;;5051243;28;20025;-82
2021/11/18 08:52:52;;;;;;;15.23;10.53;;;5.70;99.90;;;;;;5052507;28;20049;-82
2021/11/18 08:55:25;;;;;;;14.37;10.10;;;5.80;99.90;;;;;;5052721;28;20063;-82
2021/11/18 08:57:51;;;;;;;12.53;10.27;;;5.90;99.90;;;;;;5051022;28;20037;-82
2021/11/18 09:00:48;;;;;;;16.27;9.97;;;5.90;99.90;;;;;;5036517;28;20034;-82
2021/11/18 09:03:16;;;;;;;12.07;8.73;;;6.00;99.90;;;;;;5036464;28;20025;-82
2021/11/18 09:05:41;;;;;;;12.90;9.27;;;6.20;99.90;;;;;;5036461;28;20075;-82
2021/11/18 09:08:07;;;;;;;13.23;9.37;;;6.20;99.90;;;;;;5037118;28;20136;-83
2021/11/18 09:10:35;;;;;;;12.60;9.17;;;6.20;99.90;;;;;;5034175;28;20047;-82
2021/11/18 09:13:02;;;;;;;13.30;9.43;;;6.30;99.90;;;;;;5032148;28;20129;-82
2021/11/18 09:15:28;;;;;;;12.37;9.10;;;6.30;99.90;;;;;;5036492;28;20119;-83
2021/11/18 09:17:56;;;;;;;11.67;9.40;;;6.30;99.90;;;;;;5035164;28;20045;-83
2021/11/18 09:20:24;;;;;;;16.40;9.00;;;6.40;99.90;;;;;;5033824;28;20036;-83
2021/11/18 09:22:57;;;;;;;13.90;8.30;;;6.40;99.90;;;;;;5033206;28;20048;-83
2021/11/18 09:25:23;;;;;;;12.13;8.13;;;6.50;99.90;;;;;;5039076;28;20040;-83
2021/11/18 09:27:51;;;;;;;12.27;8.47;;;6.60;99.90;;;;;;5040734;28;20076;-80
2021/11/18 09:30:26;;;;;;;11.47;8.50;;;6.60;99.90;;;;;;5036194;28;20055;-80
2021/11/18 09:32:53;;;;;;;15.20;8.60;;;6.60;99.90;;;;;;5035956;28;20106;-80
2021/11/18 09:35:27;;;;;;;12.13;8.10;;;6.60;99.90;;;;;;5050119;28;20048;-79
2021/11/18 09:37:53;;;;;;;11.23;8.87;;;6.60;99.90;;;;;;5039870;28;20067;-83
2021/11/18 09:40:26;;;;;;;11.73;8.13;;;6.70;99.90;;;;;;5039484;28;20390;-83
2021/11/18 09:43:04;;;;;;;11.23;8.10;;;6.60;99.90;;;;;;5039568;28;20033;-83
2021/11/18 09:45:31;;;;;;;15.27;7.60;;;6.70;99.90;;;;;;5037862;28;20033;-83
2021/11/18 09:48:03;;;;;;;11.07;7.77;;;6.70;99.90;;;;;;5039179;28;20045;-83
2021/11/18 09:51:06;;;;;;;12.20;8.23;;;6.70;99.90;;;;;;5038561;28;20036;-83
2021/11/18 09:53:52;;;;;;;11.30;8.23;;;6.70;99.90;;;;;;5039536;28;20025;-83
2021/11/18 09:56:50;;;;;;;10.90;8.30;;;6.80;99.90;;;;;;5038519;28;20425;-83
2021/11/18 09:59:41;;;;;;;11.63;7.93;;;6.90;99.90;;;;;;5031529;28;20045;-83
2021/11/18 10:02:33;;;;;;;9.73;7.40;;;6.90;99.90;;;;;;5037842;28;20072;-82
2021/11/18 10:05:11;;;;;;;10.70;7.27;;;7.00;99.90;;;;;;5039135;28;20079;-83
2021/11/18 10:08:08;;;;;;;10.80;7.50;;;7.00;99.90;;;;;;5049126;28;20323;-82
2021/11/18 10:10:50;;;;;;;9.60;7.53;;;7.00;99.90;;;;;;5053857;28;20029;-83
2021/11/18 10:13:41;;;;;;;9.30;7.67;;;7.00;99.90;;;;;;5053501;28;20045;-82
2021/11/18 10:16:18;;;;;;;13.30;7.67;;;7.10;99.90;;;;;;5051044;28;20025;-82
2021/11/18 10:18:51;;;;;;;10.63;8.00;;;7.10;99.90;;;;;;5035293;28;20444;-83
2021/11/18 10:21:41;;;;;;;10.27;7.27;;;7.20;99.90;;;;;;5035199;28;20092;-82
2021/11/18 10:24:20;;;;;;;13.77;7.60;;;7.30;99.90;;;;;;5035142;28;20035;-83
2021/11/18 10:26:56;;;;;;;11.73;8.50;;;7.40;99.90;;;;;;5034906;28;20358;-82
2021/11/18 10:29:59;;;;;;;18.23;8.30;;;7.40;99.90;;;;;;5035361;28;20022;-82
2021/11/18 10:32:31;;;;;;;9.80;7.53;;;7.40;99.90;;;;;;5035169;28;20520;-83
2021/11/18 10:35:22;;;;;;;12.30;8.73;;;7.50;99.90;;;;;;5034961;28;20034;-83
2021/11/18 10:37:51;;;;;;;10.93;7.13;;;7.40;99.90;;;;;;5034014;28;20100;-82
2021/11/18 10:40:30;;;;;;;11.40;8.20;;;7.50;99.90;;;;;;5034577;28;20071;-83
2021/11/18 10:43:02;;;;;;;14.63;7.20;;;7.50;99.90;;;;;;5035052;28;20103;-83
2021/11/18 10:45:39;;;;;;;11.60;6.70;;;7.60;99.90;;;;;;5034865;28;20409;-83
2021/11/18 10:48:13;;;;;;;9.80;6.20;;;7.60;99.90;;;;;;5034698;28;20412;-83
2021/11/18 10:50:52;;;;;;;10.30;6.95;;;7.80;99.90;;;;;;5034378;28;20038;-82
2021/11/18 10:53:30;;;;;;;9.07;6.93;;;7.90;99.90;;;;;;5034814;28;20029;-83
2021/11/18 10:56:06;;;;;;;9.67;6.00;;;8.00;99.90;;;;;;5044215;28;20083;-83
2021/11/18 10:58:38;;;;;;;10.47;5.60;;;8.30;99.90;;;;;;5049858;28;20029;-80
2021/11/18 11:01:16;;;;;;;10.77;7.07;;;8.30;99.90;;;;;;5046377;28;20464;-82
2021/11/18 11:03:44;;;;;;;7.40;5.93;;;8.30;99.90;;;;;;5038190;28;20035;-82
2021/11/18 11:06:16;;;;;;;7.10;4.90;;;8.40;99.90;;;;;;5036376;28;20108;-82
2021/11/18 11:08:53;;;;;;;6.67;4.47;;;8.40;99.90;;;;;;5038052;28;20029;-82
2021/11/18 11:11:26;;;;;;;5.83;4.07;;;8.50;99.90;;;;;;5038873;28;20052;-80
2021/11/18 11:14:12;;;;;;;3.53;1.57;;;8.60;99.90;;;;;;5044486;28;20095;-80
2021/11/18 11:17:04;;;;;;;;;;;8.60;99.90;;;;;;5041302;28;20367;-80
2021/11/18 11:20:11;;;;;;;3.37;2.50;;;8.70;99.90;;;;;;5019815;28;20007;-83
2021/11/18 11:22:48;;;;;;;10.30;1.80;;;8.70;99.90;;;;;;5048437;28;20028;-83
2021/11/18 11:25:32;;;;;;;5.50;1.33;;;8.80;99.90;;;;;;5048153;28;20026;-80
2021/11/18 11:28:14;;;;;;;3.70;1.20;;;8.70;99.90;;;;;;5045850;28;20070;-79
2021/11/18 11:30:54;;;;;;;4.97;1.50;;;8.60;99.90;;;;;;5050666;28;20473;-82
2021/11/18 11:33:24;;;;;;;2.10;1.57;;;8.60;99.90;;;;;;5057958;28;20029;-81
2021/11/18 11:36:11;;;;;;;5.47;2.13;;;8.40;99.90;;;;;;5035472;28;20069;-84
2021/11/18 11:39:00;;;;;;;3.77;2.10;;;8.40;99.90;;;;;;5040042;28;20026;-82
2021/11/18 11:41:47;;;;;;;9.27;2.90;;;8.30;99.90;;;;;;5037498;28;20031;-84
2021/11/18 11:44:52;;;;;;;8.83;3.00;;;8.30;99.90;;;;;;5042197;28;20101;-82
2021/11/18 11:47:49;;;;;;;8.27;2.40;;;8.50;99.90;;;;;;5042699;28;20052;-80
2021/11/18 11:50:33;;;;;;;8.40;3.60;;;8.60;99.90;;;;;;5040062;28;20029;-81
2021/11/18 11:53:16;;;;;;;2.93;2.13;;;8.90;99.90;;;;;;5038345;28;20052;-79
2021/11/18 11:55:52;;;;;;;3.53;2.33;;;9.00;99.90;;;;;;5039675;28;20037;-83
2021/11/18 11:58:49;;;;;;;3.40;2.42;;;9.20;99.90;;;;;;5034755;28;20048;-82
2021/11/18 12:01:33;;;;;;;4.03;2.60;;;9.30;99.90;;;;;;5036768;28;20622;-80
2021/11/18 12:04:20;;;;;;;4.47;2.87;;;9.40;99.90;;;;;;5040815;28;20020;-81
2021/11/18 12:07:03;;;;;;;3.50;2.30;;;9.40;99.90;;;;;;5040653;28;20493;-81
2021/11/18 12:09:50;;;;;;;3.00;2.40;;;9.30;99.90;;;;;;5039368;28;20083;-81
2021/11/18 12:12:22;;;;;;;3.63;2.83;;;9.30;99.90;;;;;;5042121;28;20044;-81
2021/11/18 12:14:52;;;;;;;3.40;2.77;;;9.20;99.90;;;;;;5041634;28;20024;-84
2021/11/18 12:17:42;;;;;;;3.83;2.80;;;9.10;99.90;;;;;;5033374;28;20598;-82
2021/11/18 12:20:15;;;;;;;3.93;2.63;;;8.90;99.90;;;;;;5035392;28;20026;-82
2021/11/18 12:22:40;;;;;;;3.60;2.87;;;8.80;99.90;;;;;;5037076;28;20035;-84
2021/11/18 12:25:09;;;;;;;4.60;3.10;;;8.70;99.90;;;;;;5053124;28;20021;-83
2021/11/18 12:27:45;;;;;;;3.67;2.90;;;8.70;99.90;;;;;;5053576;28;20031;-83
2021/11/18 12:30:10;;;;;;;6.93;3.17;;;8.70;99.90;;;;;;5041374;28;20033;-84
2021/11/18 12:32:38;;;;;;;5.73;3.27;;;8.80;99.90;;;;;;5033448;28;20021;-83
2021/11/18 12:35:33;;;;;;;4.43;3.30;;;8.80;99.90;;;;;;5042393;28;20043;-84
2021/11/18 12:38:14;;;;;;;7.47;3.70;;;8.80;99.90;;;;;;5043693;28;20067;-84
2021/11/18 12:41:11;;;;;;;6.73;3.03;;;9.00;99.90;;;;;;5044102;28;20043;-84
2021/11/18 12:44:08;;;;;;;6.30;3.87;;;9.00;99.90;;;;;;5041836;28;20573;-84
2021/11/18 12:47:13;;;;;;;6.20;3.53;;;9.10;99.90;;;;;;5044262;28;20090;-84
2021/11/18 12:49:52;;;;;;;10.80;3.67;;;9.20;99.90;;;;;;5039937;28;20025;-84
2021/11/18 12:52:20;;;;;;;6.80;3.50;;;9.30;99.90;;;;;;5052005;28;20025;-84
2021/11/18 12:55:08;;;;;;;6.87;3.40;;;9.40;99.90;;;;;;5052788;28;20025;-84
2021/11/18 12:57:55;;;;;;;4.53;2.87;;;9.40;99.90;;;;;;5048046;28;20040;-81
2021/11/18 13:00:44;;;;;;;4.30;3.00;;;9.40;99.90;;;;;;5049923;28;20029;-84
2021/11/18 13:03:13;;;;;;;5.27;3.40;;;9.40;99.90;;;;;;5035175;28;20385;-84